sensor_id;sensor_type;location;lat;lon;timestamp;temperature;humidity
6178;DHT22;3122;48.208;11.174;2023-04-20T00:03:24;4.70;1.00
6178;DHT22;3122;48.208;11.174;2023-04-20T00:08:27;4.70;1.00
6178;DHT22;3122;48.208;11.174;2023-04-20T00:13:27;4.80;1.00
6178;DHT22;3122;48.208;11.174;2023-04-20T00:18:28;4.80;1.00
6178;DHT22;3122;48.208;11.174;2023-04-20T00:23:28;4.70;1.00
6178;DHT22;3122;48.208;11.174;2023-04-20T00:28:29;4.70;1.00
6178;DHT22;3122;48.208;11.174;2023-04-20T00:33:30;4.70;1.00
6178;DHT22;3122;48.208;11.174;2023-04-20T00:38:31;4.80;1.00
6178;DHT22;3122;48.208;11.174;2023-04-20T00:43:32;4.80;1.00
6178;DHT22;3122;48.208;11.174;2023-04-20T00:48:32;4.80;1.00
6178;DHT22;3122;48.208;11.174;2023-04-20T00:53:33;4.80;1.00
6178;DHT22;3122;48.208;11.174;2023-04-20T00:58:33;4.70;1.00
6178;DHT22;3122;48.208;11.174;2023-04-20T01:03:34;4.80;1.00
6178;DHT22;3122;48.208;11.174;2023-04-20T01:08:45;4.80;1.00
6178;DHT22;3122;48.208;11.174;2023-04-20T01:13:45;4.80;1.00
6178;DHT22;3122;48.208;11.174;2023-04-20T01:18:48;4.80;1.00
6178;DHT22;3122;48.208;11.174;2023-04-20T01:23:49;4.80;1.00
6178;DHT22;3122;48.208;11.174;2023-04-20T01:28:49;4.70;1.00
6178;DHT22;3122;48.208;11.174;2023-04-20T01:33:50;4.70;1.00
6178;DHT22;3122;48.208;11.174;2023-04-20T01:38:51;4.70;1.00
6178;DHT22;3122;48.208;11.174;2023-04-20T01:43:51;4.70;1.00
6178;DHT22;3122;48.208;11.174;2023-04-20T01:48:52;4.70;1.00
6178;DHT22;3122;48.208;11.174;2023-04-20T01:53:52;4.70;1.00
6178;DHT22;3122;48.208;11.174;2023-04-20T01:58:53;4.80;1.00
6178;DHT22;3122;48.208;11.174;2023-04-20T02:03:54;4.80;1.00
6178;DHT22;3122;48.208;11.174;2023-04-20T02:08:55;4.70;1.00
6178;DHT22;3122;48.208;11.174;2023-04-20T02:13:55;4.70;1.00
6178;DHT22;3122;48.208;11.174;2023-04-20T02:18:56;4.70;1.00
6178;DHT22;3122;48.208;11.174;2023-04-20T02:23:56;4.60;1.00
6178;DHT22;3122;48.208;11.174;2023-04-20T02:28:57;4.70;1.00
6178;DHT22;3122;48.208;11.174;2023-04-20T02:33:57;4.70;1.00
6178;DHT22;3122;48.208;11.174;2023-04-20T02:38:58;4.60;1.00
6178;DHT22;3122;48.208;11.174;2023-04-20T02:43:59;4.50;1.00
6178;DHT22;3122;48.208;11.174;2023-04-20T02:48:59;4.50;1.00
6178;DHT22;3122;48.208;11.174;2023-04-20T02:54:00;4.60;1.00
6178;DHT22;3122;48.208;11.174;2023-04-20T02:59:00;4.50;1.00
6178;DHT22;3122;48.208;11.174;2023-04-20T03:04:01;4.60;1.00
6178;DHT22;3122;48.208;11.174;2023-04-20T03:09:02;4.60;1.00
6178;DHT22;3122;48.208;11.174;2023-04-20T03:14:03;4.50;1.00
6178;DHT22;3122;48.208;11.174;2023-04-20T03:19:03;4.60;1.00
6178;DHT22;3122;48.208;11.174;2023-04-20T03:24:04;4.50;1.00
6178;DHT22;3122;48.208;11.174;2023-04-20T03:29:06;4.60;1.00
6178;DHT22;3122;48.208;11.174;2023-04-20T03:34:06;4.60;1.00
6178;DHT22;3122;48.208;11.174;2023-04-20T03:39:07;4.60;1.00
6178;DHT22;3122;48.208;11.174;2023-04-20T03:44:08;4.40;1.00
6178;DHT22;3122;48.208;11.174;2023-04-20T03:49:08;4.40;1.00
6178;DHT22;3122;48.208;11.174;2023-04-20T03:54:09;4.50;1.00
6178;DHT22;3122;48.208;11.174;2023-04-20T03:59:10;4.30;1.00
6178;DHT22;3122;48.208;11.174;2023-04-20T04:04:11;4.40;1.00
6178;DHT22;3122;48.208;11.174;2023-04-20T04:09:11;4.40;1.00
6178;DHT22;3122;48.208;11.174;2023-04-20T04:14:12;4.40;1.00
6178;DHT22;3122;48.208;11.174;2023-04-20T04:19:12;4.30;1.00
6178;DHT22;3122;48.208;11.174;2023-04-20T04:24:13;4.20;1.00
6178;DHT22;3122;48.208;11.174;2023-04-20T04:29:13;4.20;1.00
6178;DHT22;3122;48.208;11.174;2023-04-20T04:34:15;4.20;1.00
6178;DHT22;3122;48.208;11.174;2023-04-20T04:39:17;4.20;1.00
6178;DHT22;3122;48.208;11.174;2023-04-20T04:44:18;4.20;1.00
6178;DHT22;3122;48.208;11.174;2023-04-20T04:49:18;4.20;1.00
6178;DHT22;3122;48.208;11.174;2023-04-20T04:54:19;4.20;1.00
6178;DHT22;3122;48.208;11.174;2023-04-20T04:59:20;4.30;1.00
6178;DHT22;3122;48.208;11.174;2023-04-20T05:04:21;4.30;1.00
6178;DHT22;3122;48.208;11.174;2023-04-20T05:09:22;4.30;1.00
6178;DHT22;3122;48.208;11.174;2023-04-20T05:14:22;4.40;1.00
6178;DHT22;3122;48.208;11.174;2023-04-20T05:19:23;4.50;1.00
6178;DHT22;3122;48.208;11.174;2023-04-20T05:24:24;4.50;1.00
6178;DHT22;3122;48.208;11.174;2023-04-20T05:29:24;4.50;1.00
6178;DHT22;3122;48.208;11.174;2023-04-20T05:34:25;4.40;1.00
6178;DHT22;3122;48.208;11.174;2023-04-20T05:39:25;4.40;1.00
6178;DHT22;3122;48.208;11.174;2023-04-20T05:44:26;4.40;1.00
6178;DHT22;3122;48.208;11.174;2023-04-20T05:49:27;4.40;1.00
6178;DHT22;3122;48.208;11.174;2023-04-20T05:54:27;4.40;1.00
6178;DHT22;3122;48.208;11.174;2023-04-20T05:59:28;4.30;1.00
6178;DHT22;3122;48.208;11.174;2023-04-20T06:04:28;4.30;1.00
6178;DHT22;3122;48.208;11.174;2023-04-20T06:09:29;4.40;1.00
6178;DHT22;3122;48.208;11.174;2023-04-20T06:14:30;4.50;1.00
6178;DHT22;3122;48.208;11.174;2023-04-20T06:19:31;4.60;1.00
6178;DHT22;3122;48.208;11.174;2023-04-20T06:24:31;4.50;1.00
6178;DHT22;3122;48.208;11.174;2023-04-20T06:29:32;4.50;1.00
6178;DHT22;3122;48.208;11.174;2023-04-20T06:34:33;4.50;1.00
6178;DHT22;3122;48.208;11.174;2023-04-20T06:39:33;4.50;1.00
6178;DHT22;3122;48.208;11.174;2023-04-20T06:44:35;4.50;1.00
6178;DHT22;3122;48.208;11.174;2023-04-20T06:49:35;4.50;1.00
6178;DHT22;3122;48.208;11.174;2023-04-20T06:54:36;4.60;1.00
6178;DHT22;3122;48.208;11.174;2023-04-20T06:59:37;4.60;1.00
6178;DHT22;3122;48.208;11.174;2023-04-20T07:04:38;4.60;1.00
6178;DHT22;3122;48.208;11.174;2023-04-20T07:09:39;4.60;1.00
6178;DHT22;3122;48.208;11.174;2023-04-20T07:14:39;4.50;1.00
6178;DHT22;3122;48.208;11.174;2023-04-20T07:19:40;4.50;1.00
6178;DHT22;3122;48.208;11.174;2023-04-20T07:24:40;4.40;1.00
6178;DHT22;3122;48.208;11.174;2023-04-20T07:29:41;4.60;1.00
6178;DHT22;3122;48.208;11.174;2023-04-20T07:34:41;4.70;1.00
6178;DHT22;3122;48.208;11.174;2023-04-20T07:39:42;4.60;1.00
6178;DHT22;3122;48.208;11.174;2023-04-20T07:44:42;4.40;1.00
6178;DHT22;3122;48.208;11.174;2023-04-20T07:49:43;4.40;1.00
6178;DHT22;3122;48.208;11.174;2023-04-20T07:54:44;4.50;1.00
6178;DHT22;3122;48.208;11.174;2023-04-20T07:59:45;4.50;1.00
6178;DHT22;3122;48.208;11.174;2023-04-20T08:04:46;4.40;1.00
6178;DHT22;3122;48.208;11.174;2023-04-20T08:09:47;4.40;1.00
6178;DHT22;3122;48.208;11.174;2023-04-20T08:14:48;4.50;1.00
6178;DHT22;3122;48.208;11.174;2023-04-20T08:19:48;4.50;1.00
6178;DHT22;3122;48.208;11.174;2023-04-20T08:24:49;4.40;1.00
6178;DHT22;3122;48.208;11.174;2023-04-20T08:29:50;4.50;1.00
6178;DHT22;3122;48.208;11.174;2023-04-20T08:34:50;4.40;1.00
6178;DHT22;3122;48.208;11.174;2023-04-20T08:39:51;4.50;1.00
6178;DHT22;3122;48.208;11.174;2023-04-20T08:44:52;4.40;1.00
6178;DHT22;3122;48.208;11.174;2023-04-20T08:49:52;4.40;1.00
6178;DHT22;3122;48.208;11.174;2023-04-20T08:54:54;4.20;1.00
6178;DHT22;3122;48.208;11.174;2023-04-20T08:59:55;4.30;1.00
6178;DHT22;3122;48.208;11.174;2023-04-20T09:05:00;4.40;1.00
6178;DHT22;3122;48.208;11.174;2023-04-20T09:10:01;4.40;1.00
6178;DHT22;3122;48.208;11.174;2023-04-20T09:15:01;4.50;1.00
6178;DHT22;3122;48.208;11.174;2023-04-20T09:20:03;4.60;1.00
6178;DHT22;3122;48.208;11.174;2023-04-20T09:25:17;4.50;1.00
6178;DHT22;3122;48.208;11.174;2023-04-20T09:30:19;4.60;1.00
6178;DHT22;3122;48.208;11.174;2023-04-20T09:35:22;4.90;1.00
6178;DHT22;3122;48.208;11.174;2023-04-20T09:40:24;5.00;1.00
6178;DHT22;3122;48.208;11.174;2023-04-20T09:45:25;5.30;1.00
6178;DHT22;3122;48.208;11.174;2023-04-20T09:50:26;5.20;1.00
6178;DHT22;3122;48.208;11.174;2023-04-20T09:55:32;5.30;1.00
6178;DHT22;3122;48.208;11.174;2023-04-20T10:00:33;5.20;1.00
6178;DHT22;3122;48.208;11.174;2023-04-20T10:05:34;5.20;1.00
6178;DHT22;3122;48.208;11.174;2023-04-20T10:10:46;5.10;1.00
6178;DHT22;3122;48.208;11.174;2023-04-20T10:15:47;4.90;1.00
6178;DHT22;3122;48.208;11.174;2023-04-20T10:20:48;4.90;1.00
6178;DHT22;3122;48.208;11.174;2023-04-20T10:25:57;5.00;1.00
6178;DHT22;3122;48.208;11.174;2023-04-20T10:30:58;5.10;1.00
6178;DHT22;3122;48.208;11.174;2023-04-20T10:35:58;5.00;1.00
6178;DHT22;3122;48.208;11.174;2023-04-20T10:41:09;5.10;1.00
6178;DHT22;3122;48.208;11.174;2023-04-20T10:46:21;5.20;1.00
6178;DHT22;3122;48.208;11.174;2023-04-20T10:51:23;5.30;1.00
6178;DHT22;3122;48.208;11.174;2023-04-20T10:56:24;5.30;1.00
6178;DHT22;3122;48.208;11.174;2023-04-20T11:01:30;5.30;1.00
6178;DHT22;3122;48.208;11.174;2023-04-20T11:06:32;5.20;1.00
6178;DHT22;3122;48.208;11.174;2023-04-20T11:11:33;5.20;1.00
6178;DHT22;3122;48.208;11.174;2023-04-20T11:16:37;5.20;1.00
6178;DHT22;3122;48.208;11.174;2023-04-20T11:21:39;5.20;1.00
6178;DHT22;3122;48.208;11.174;2023-04-20T11:26:40;5.30;1.00
6178;DHT22;3122;48.208;11.174;2023-04-20T11:31:41;5.30;1.00
6178;DHT22;3122;48.208;11.174;2023-04-20T11:36:42;5.40;1.00
6178;DHT22;3122;48.208;11.174;2023-04-20T11:41:42;5.40;1.00
6178;DHT22;3122;48.208;11.174;2023-04-20T11:46:44;5.40;1.00
6178;DHT22;3122;48.208;11.174;2023-04-20T11:51:45;5.40;1.00
6178;DHT22;3122;48.208;11.174;2023-04-20T11:56:46;5.60;1.00
6178;DHT22;3122;48.208;11.174;2023-04-20T12:01:47;5.70;1.00
6178;DHT22;3122;48.208;11.174;2023-04-20T12:06:47;5.60;1.00
6178;DHT22;3122;48.208;11.174;2023-04-20T12:11:48;5.90;1.00
6178;DHT22;3122;48.208;11.174;2023-04-20T12:16:48;5.90;1.00
6178;DHT22;3122;48.208;11.174;2023-04-20T12:21:49;6.00;1.00
6178;DHT22;3122;48.208;11.174;2023-04-20T12:26:49;6.00;1.00
6178;DHT22;3122;48.208;11.174;2023-04-20T12:31:50;6.00;1.00
6178;DHT22;3122;48.208;11.174;2023-04-20T12:36:50;6.00;1.00
6178;DHT22;3122;48.208;11.174;2023-04-20T12:41:51;6.10;1.00
6178;DHT22;3122;48.208;11.174;2023-04-20T12:46:51;6.10;1.00
6178;DHT22;3122;48.208;11.174;2023-04-20T12:51:52;6.20;1.00
6178;DHT22;3122;48.208;11.174;2023-04-20T12:56:52;6.30;1.00
6178;DHT22;3122;48.208;11.174;2023-04-20T13:01:53;6.40;1.00
6178;DHT22;3122;48.208;11.174;2023-04-20T13:06:54;6.50;1.00
6178;DHT22;3122;48.208;11.174;2023-04-20T13:11:55;6.50;1.00
6178;DHT22;3122;48.208;11.174;2023-04-20T13:16:55;6.50;1.00
6178;DHT22;3122;48.208;11.174;2023-04-20T13:21:56;6.40;1.00
6178;DHT22;3122;48.208;11.174;2023-04-20T13:26:57;6.40;1.00
6178;DHT22;3122;48.208;11.174;2023-04-20T13:31:57;6.70;1.00
6178;DHT22;3122;48.208;11.174;2023-04-20T13:36:58;6.90;1.00
6178;DHT22;3122;48.208;11.174;2023-04-20T13:41:59;6.90;1.00
6178;DHT22;3122;48.208;11.174;2023-04-20T13:46:59;6.80;1.00
6178;DHT22;3122;48.208;11.174;2023-04-20T13:52:00;6.80;1.00
6178;DHT22;3122;48.208;11.174;2023-04-20T13:57:01;6.90;1.00
6178;DHT22;3122;48.208;11.174;2023-04-20T14:02:01;6.90;1.00
6178;DHT22;3122;48.208;11.174;2023-04-20T14:07:02;6.80;1.00
6178;DHT22;3122;48.208;11.174;2023-04-20T14:12:03;6.80;1.00
6178;DHT22;3122;48.208;11.174;2023-04-20T14:17:03;6.80;1.00
6178;DHT22;3122;48.208;11.174;2023-04-20T14:22:04;6.80;1.00
6178;DHT22;3122;48.208;11.174;2023-04-20T14:27:04;6.70;1.00
6178;DHT22;3122;48.208;11.174;2023-04-20T14:32:05;6.80;1.00
6178;DHT22;3122;48.208;11.174;2023-04-20T14:37:05;6.70;1.00
6178;DHT22;3122;48.208;11.174;2023-04-20T14:42:06;6.80;1.00
6178;DHT22;3122;48.208;11.174;2023-04-20T14:47:07;6.70;1.00
6178;DHT22;3122;48.208;11.174;2023-04-20T14:52:08;6.80;1.00
6178;DHT22;3122;48.208;11.174;2023-04-20T14:57:08;6.80;1.00
6178;DHT22;3122;48.208;11.174;2023-04-20T15:02:09;6.80;1.00
6178;DHT22;3122;48.208;11.174;2023-04-20T15:07:10;6.80;1.00
6178;DHT22;3122;48.208;11.174;2023-04-20T15:12:10;6.80;1.00
6178;DHT22;3122;48.208;11.174;2023-04-20T15:17:11;6.80;1.00
6178;DHT22;3122;48.208;11.174;2023-04-20T15:22:13;6.80;1.00
6178;DHT22;3122;48.208;11.174;2023-04-20T15:27:14;6.90;1.00
6178;DHT22;3122;48.208;11.174;2023-04-20T15:32:16;7.00;1.00
6178;DHT22;3122;48.208;11.174;2023-04-20T15:37:16;7.00;1.00
6178;DHT22;3122;48.208;11.174;2023-04-20T15:42:17;6.90;1.00
6178;DHT22;3122;48.208;11.174;2023-04-20T15:47:18;7.00;1.00
6178;DHT22;3122;48.208;11.174;2023-04-20T15:52:19;7.00;1.00
6178;DHT22;3122;48.208;11.174;2023-04-20T15:57:19;7.10;1.00
6178;DHT22;3122;48.208;11.174;2023-04-20T16:02:20;7.10;1.00
6178;DHT22;3122;48.208;11.174;2023-04-20T16:07:20;7.20;1.00
6178;DHT22;3122;48.208;11.174;2023-04-20T16:12:21;7.20;1.00
6178;DHT22;3122;48.208;11.174;2023-04-20T16:17:21;7.20;1.00
6178;DHT22;3122;48.208;11.174;2023-04-20T16:22:22;7.10;1.00
6178;DHT22;3122;48.208;11.174;2023-04-20T16:27:23;7.10;1.00
6178;DHT22;3122;48.208;11.174;2023-04-20T16:32:23;7.30;1.00
6178;DHT22;3122;48.208;11.174;2023-04-20T16:37:24;7.30;1.00
6178;DHT22;3122;48.208;11.174;2023-04-20T16:42:24;7.00;1.00
6178;DHT22;3122;48.208;11.174;2023-04-20T16:47:25;7.00;1.00
6178;DHT22;3122;48.208;11.174;2023-04-20T16:52:26;7.00;1.00
6178;DHT22;3122;48.208;11.174;2023-04-20T16:57:26;6.90;1.00
6178;DHT22;3122;48.208;11.174;2023-04-20T17:02:27;6.90;1.00
6178;DHT22;3122;48.208;11.174;2023-04-20T17:07:31;6.90;1.00
6178;DHT22;3122;48.208;11.174;2023-04-20T17:12:32;6.90;1.00
6178;DHT22;3122;48.208;11.174;2023-04-20T17:17:33;6.90;1.00
6178;DHT22;3122;48.208;11.174;2023-04-20T17:22:34;6.80;1.00
6178;DHT22;3122;48.208;11.174;2023-04-20T17:27:34;6.80;1.00
6178;DHT22;3122;48.208;11.174;2023-04-20T17:32:35;6.90;1.00
6178;DHT22;3122;48.208;11.174;2023-04-20T17:37:35;6.80;1.00
6178;DHT22;3122;48.208;11.174;2023-04-20T17:42:36;6.90;1.00
6178;DHT22;3122;48.208;11.174;2023-04-20T17:47:37;6.90;1.00
6178;DHT22;3122;48.208;11.174;2023-04-20T17:52:38;6.90;1.00
6178;DHT22;3122;48.208;11.174;2023-04-20T17:57:39;6.90;1.00
6178;DHT22;3122;48.208;11.174;2023-04-20T18:02:39;6.80;1.00
6178;DHT22;3122;48.208;11.174;2023-04-20T18:07:40;6.90;1.00
6178;DHT22;3122;48.208;11.174;2023-04-20T18:12:41;7.00;1.00
6178;DHT22;3122;48.208;11.174;2023-04-20T18:17:42;6.80;1.00
6178;DHT22;3122;48.208;11.174;2023-04-20T18:22:44;6.70;1.00
6178;DHT22;3122;48.208;11.174;2023-04-20T18:27:45;6.70;1.00
6178;DHT22;3122;48.208;11.174;2023-04-20T18:32:45;6.40;1.00
6178;DHT22;3122;48.208;11.174;2023-04-20T18:37:46;6.50;1.00
6178;DHT22;3122;48.208;11.174;2023-04-20T18:42:46;6.40;1.00
6178;DHT22;3122;48.208;11.174;2023-04-20T18:47:47;6.50;1.00
6178;DHT22;3122;48.208;11.174;2023-04-20T18:52:47;6.50;1.00
6178;DHT22;3122;48.208;11.174;2023-04-20T18:57:48;6.40;1.00
6178;DHT22;3122;48.208;11.174;2023-04-20T19:02:48;6.30;1.00
6178;DHT22;3122;48.208;11.174;2023-04-20T19:07:49;6.30;1.00
6178;DHT22;3122;48.208;11.174;2023-04-20T19:12:49;6.40;1.00
6178;DHT22;3122;48.208;11.174;2023-04-20T19:17:56;6.50;1.00
6178;DHT22;3122;48.208;11.174;2023-04-20T19:22:56;6.60;1.00
6178;DHT22;3122;48.208;11.174;2023-04-20T19:27:57;6.40;1.00
6178;DHT22;3122;48.208;11.174;2023-04-20T19:32:58;6.40;1.00
6178;DHT22;3122;48.208;11.174;2023-04-20T19:38:01;6.40;1.00
6178;DHT22;3122;48.208;11.174;2023-04-20T19:43:02;6.40;1.00
6178;DHT22;3122;48.208;11.174;2023-04-20T19:48:02;6.30;1.00
6178;DHT22;3122;48.208;11.174;2023-04-20T19:53:03;6.20;1.00
6178;DHT22;3122;48.208;11.174;2023-04-20T19:58:04;6.30;1.00
6178;DHT22;3122;48.208;11.174;2023-04-20T20:03:08;6.20;1.00
6178;DHT22;3122;48.208;11.174;2023-04-20T20:08:10;6.20;1.00
6178;DHT22;3122;48.208;11.174;2023-04-20T20:13:11;6.20;1.00
6178;DHT22;3122;48.208;11.174;2023-04-20T20:18:12;6.10;1.00
6178;DHT22;3122;48.208;11.174;2023-04-20T20:23:13;6.10;1.00
6178;DHT22;3122;48.208;11.174;2023-04-20T20:28:14;6.10;1.00
6178;DHT22;3122;48.208;11.174;2023-04-20T20:33:14;6.10;1.00
6178;DHT22;3122;48.208;11.174;2023-04-20T20:38:15;6.00;1.00
6178;DHT22;3122;48.208;11.174;2023-04-20T20:43:17;6.10;1.00
6178;DHT22;3122;48.208;11.174;2023-04-20T20:48:18;6.10;1.00
6178;DHT22;3122;48.208;11.174;2023-04-20T20:53:18;6.10;1.00
6178;DHT22;3122;48.208;11.174;2023-04-20T20:58:19;6.00;1.00
6178;DHT22;3122;48.208;11.174;2023-04-20T21:03:20;5.90;1.00
6178;DHT22;3122;48.208;11.174;2023-04-20T21:08:21;6.00;1.00
6178;DHT22;3122;48.208;11.174;2023-04-20T21:13:21;5.90;1.00
6178;DHT22;3122;48.208;11.174;2023-04-20T21:18:22;5.90;1.00
6178;DHT22;3122;48.208;11.174;2023-04-20T21:23:23;6.00;1.00
6178;DHT22;3122;48.208;11.174;2023-04-20T21:28:23;5.90;1.00
6178;DHT22;3122;48.208;11.174;2023-04-20T21:33:24;6.00;1.00
6178;DHT22;3122;48.208;11.174;2023-04-20T21:38:24;6.00;1.00
6178;DHT22;3122;48.208;11.174;2023-04-20T21:43:25;6.00;1.00
6178;DHT22;3122;48.208;11.174;2023-04-20T21:48:25;6.00;1.00
6178;DHT22;3122;48.208;11.174;2023-04-20T21:53:26;6.00;1.00
6178;DHT22;3122;48.208;11.174;2023-04-20T21:58:26;5.90;1.00
6178;DHT22;3122;48.208;11.174;2023-04-20T22:03:27;6.00;1.00
6178;DHT22;3122;48.208;11.174;2023-04-20T22:08:28;6.20;1.00
6178;DHT22;3122;48.208;11.174;2023-04-20T22:13:30;6.10;1.00
6178;DHT22;3122;48.208;11.174;2023-04-20T22:18:31;6.10;1.00
6178;DHT22;3122;48.208;11.174;2023-04-20T22:23:31;6.10;1.00
6178;DHT22;3122;48.208;11.174;2023-04-20T22:28:32;6.10;1.00
6178;DHT22;3122;48.208;11.174;2023-04-20T22:33:32;6.20;1.00
6178;DHT22;3122;48.208;11.174;2023-04-20T22:38:36;6.30;1.00
6178;DHT22;3122;48.208;11.174;2023-04-20T22:43:36;6.20;1.00
6178;DHT22;3122;48.208;11.174;2023-04-20T22:48:37;6.10;1.00
6178;DHT22;3122;48.208;11.174;2023-04-20T22:53:37;6.20;1.00
6178;DHT22;3122;48.208;11.174;2023-04-20T22:58:38;6.10;1.00
6178;DHT22;3122;48.208;11.174;2023-04-20T23:03:39;6.10;1.00
6178;DHT22;3122;48.208;11.174;2023-04-20T23:08:39;6.10;1.00
6178;DHT22;3122;48.208;11.174;2023-04-20T23:13:44;6.10;1.00
6178;DHT22;3122;48.208;11.174;2023-04-20T23:18:46;6.10;1.00
6178;DHT22;3122;48.208;11.174;2023-04-20T23:23:46;6.10;1.00
6178;DHT22;3122;48.208;11.174;2023-04-20T23:28:50;6.20;1.00
6178;DHT22;3122;48.208;11.174;2023-04-20T23:33:51;6.20;1.00
6178;DHT22;3122;48.208;11.174;2023-04-20T23:38:51;6.10;1.00
6178;DHT22;3122;48.208;11.174;2023-04-20T23:43:52;6.10;1.00
6178;DHT22;3122;48.208;11.174;2023-04-20T23:48:52;6.10;1.00
6178;DHT22;3122;48.208;11.174;2023-04-20T23:53:54;6.10;1.00
6178;DHT22;3122;48.208;11.174;2023-04-20T23:58:55;6.10;1.00
